Time;durP1;ratioP1;P1;durP2;ratioP2;P2;SDS_P1;SDS_P2;PMS_P1;PMS_P2;Temp;Humidity;BMP_temperature;BMP_pressure;BME280_temperature;BME280_humidity;BME280_pressure;Samples;Min_cycle;Max_cycle;Signal;HPM_P1;HPM_P2
2022/04/24 00:00:39;;;;;;;13.05;10.32;;;11.60;99.90;;;;;;5026519;28;20045;-77
2022/04/24 00:03:04;;;;;;;10.80;9.70;;;11.60;99.90;;;;;;5009867;28;20405;-77
2022/04/24 00:05:30;;;;;;;11.35;9.68;;;11.50;99.90;;;;;;5027707;28;20049;-77
2022/04/24 00:07:56;;;;;;;10.95;9.75;;;11.50;99.90;;;;;;5025876;28;20137;-77
2022/04/24 00:10:22;;;;;;;13.90;10.20;;;11.50;99.90;;;;;;5026734;28;20036;-77
2022/04/24 00:12:48;;;;;;;11.75;9.80;;;11.50;99.90;;;;;;5022875;28;20083;-77
2022/04/24 00:15:14;;;;;;;10.82;9.40;;;11.50;99.90;;;;;;5022646;28;20505;-77
2022/04/24 00:17:40;;;;;;;11.65;9.23;;;11.50;99.90;;;;;;5031002;28;20029;-77
2022/04/24 00:20:06;;;;;;;10.93;9.45;;;11.40;99.90;;;;;;5031424;28;20095;-78
2022/04/24 00:22:32;;;;;;;11.70;9.15;;;11.40;99.90;;;;;;5021970;28;20037;-78
2022/04/24 00:24:57;;;;;;;13.75;9.13;;;11.30;99.90;;;;;;5029777;28;20049;-77
2022/04/24 00:27:23;;;;;;;10.52;9.00;;;11.30;99.90;;;;;;5028916;28;20045;-78
2022/04/24 00:29:49;;;;;;;11.80;9.32;;;11.20;99.90;;;;;;5031479;28;20052;-77
2022/04/24 00:32:15;;;;;;;11.88;9.18;;;11.20;99.90;;;;;;5026097;28;20396;-78
2022/04/24 00:34:41;;;;;;;13.43;9.73;;;11.20;99.90;;;;;;5031358;28;20045;-77
2022/04/24 00:37:07;;;;;;;10.48;8.93;;;11.10;99.90;;;;;;5029502;28;20069;-78
2022/04/24 00:39:33;;;;;;;11.43;9.32;;;11.10;99.90;;;;;;5031254;28;20065;-77
2022/04/24 00:41:58;;;;;;;11.63;9.65;;;11.10;99.90;;;;;;5028204;28;20476;-78
2022/04/24 00:44:24;;;;;;;10.25;8.98;;;11.10;99.90;;;;;;5020204;28;20496;-78
2022/04/24 00:46:57;;;;;;;11.25;9.52;;;11.10;99.90;;;;;;5029003;28;20083;-77
2022/04/24 00:49:23;;;;;;;10.40;8.93;;;11.00;99.90;;;;;;5025619;28;20161;-77
2022/04/24 00:51:52;;;;;;;11.30;8.82;;;11.00;99.90;;;;;;5012897;28;20400;-77
2022/04/24 00:54:21;;;;;;;11.68;9.07;;;11.00;99.90;;;;;;5012263;28;20136;-78
2022/04/24 00:56:47;;;;;;;11.20;9.43;;;10.90;99.90;;;;;;5013205;28;20128;-77
2022/04/24 00:59:14;;;;;;;10.38;9.25;;;10.90;99.90;;;;;;5013453;28;20125;-77
2022/04/24 01:01:41;;;;;;;;;;;10.90;99.90;;;;;;5013890;28;20805;-77
2022/04/24 01:04:08;;;;;;;10.32;8.65;;;10.90;99.90;;;;;;5030667;28;20284;-77
2022/04/24 01:06:39;;;;;;;10.65;8.45;;;10.90;99.90;;;;;;5013864;28;20053;-77
2022/04/24 01:09:17;;;;;;;9.88;8.88;;;10.80;99.90;;;;;;5013610;28;20477;-78
2022/04/24 01:11:45;;;;;;;13.70;8.98;;;10.80;99.90;;;;;;5029678;28;20046;-77
2022/04/24 01:14:11;;;;;;;;;;;10.80;99.90;;;;;;5013275;28;20045;-78
2022/04/24 01:16:37;;;;;;;10.68;8.63;;;10.80;99.90;;;;;;5009504;28;19921;-77
2022/04/24 01:19:04;;;;;;;12.60;9.18;;;10.80;99.90;;;;;;5028347;28;20050;-77
2022/04/24 01:21:31;;;;;;;;;;;10.80;99.90;;;;;;5029833;28;20041;-77
2022/04/24 01:23:56;;;;;;;11.27;8.95;;;10.70;99.90;;;;;;5009825;28;19921;-77
2022/04/24 01:26:22;;;;;;;10.32;8.50;;;10.70;99.90;;;;;;5031361;28;20051;-77
2022/04/24 01:28:47;;;;;;;10.05;8.57;;;10.70;99.90;;;;;;5031647;28;20179;-77
2022/04/24 01:31:13;;;;;;;11.60;8.23;;;10.60;99.90;;;;;;5013132;28;20100;-77
2022/04/24 01:33:39;;;;;;;10.30;8.32;;;10.60;99.90;;;;;;5029557;28;20057;-77
2022/04/24 01:36:04;;;;;;;10.57;8.70;;;10.60;99.90;;;;;;5031276;28;20076;-77
2022/04/24 01:38:30;;;;;;;9.90;8.70;;;10.50;99.90;;;;;;5029518;28;20042;-77
2022/04/24 01:40:56;;;;;;;11.40;8.85;;;10.60;99.90;;;;;;5031232;28;20055;-77
2022/04/24 01:43:22;;;;;;;10.93;8.45;;;10.60;99.90;;;;;;5022666;28;20468;-78
2022/04/24 01:45:47;;;;;;;10.27;8.73;;;10.60;99.90;;;;;;5012710;28;20401;-78
2022/04/24 01:48:13;;;;;;;12.02;9.07;;;10.50;99.90;;;;;;5030921;28;20048;-78
2022/04/24 01:50:38;;;;;;;10.60;8.80;;;10.60;99.90;;;;;;5030621;28;20049;-77
2022/04/24 01:53:04;;;;;;;10.65;8.90;;;10.50;99.90;;;;;;5029375;28;20444;-77
2022/04/24 01:55:30;;;;;;;9.50;8.23;;;10.50;99.90;;;;;;5029711;28;20054;-78
2022/04/24 01:57:56;;;;;;;10.38;8.73;;;10.40;99.90;;;;;;5030283;28;20030;-77
2022/04/24 02:00:21;;;;;;;12.10;8.35;;;10.40;99.90;;;;;;5028678;28;20102;-77
2022/04/24 02:02:47;;;;;;;10.13;8.35;;;10.30;99.90;;;;;;5030199;28;20397;-77
2022/04/24 02:05:17;;;;;;;9.45;8.38;;;10.30;99.90;;;;;;5012331;28;20045;-77
2022/04/24 02:07:43;;;;;;;9.90;8.20;;;10.30;99.90;;;;;;5011463;28;20049;-78
2022/04/24 02:10:09;;;;;;;9.10;8.20;;;10.30;99.90;;;;;;5029877;28;20049;-77
2022/04/24 02:12:39;;;;;;;10.77;7.78;;;10.30;99.90;;;;;;5030066;28;20048;-77
2022/04/24 02:15:05;;;;;;;10.27;8.20;;;10.30;99.90;;;;;;5029804;28;20112;-77
2022/04/24 02:17:31;;;;;;;10.40;8.88;;;10.20;99.90;;;;;;5029827;28;20045;-77
2022/04/24 02:19:56;;;;;;;10.43;8.40;;;10.20;99.90;;;;;;5034159;28;20048;-78
2022/04/24 02:22:22;;;;;;;10.10;8.90;;;10.20;99.90;;;;;;5029287;28;20049;-78
2022/04/24 02:24:47;;;;;;;8.98;8.18;;;10.20;99.90;;;;;;5030122;28;20064;-77
2022/04/24 02:27:13;;;;;;;13.07;8.95;;;10.10;99.90;;;;;;5008332;28;20045;-77
2022/04/24 02:29:38;;;;;;;9.82;8.38;;;10.10;99.90;;;;;;5028663;28;20049;-77
2022/04/24 02:32:04;;;;;;;10.60;8.07;;;10.10;99.90;;;;;;5030434;28;20037;-78
2022/04/24 02:34:30;;;;;;;9.68;7.97;;;10.00;99.90;;;;;;5008619;28;20061;-77
2022/04/24 02:36:56;;;;;;;9.70;8.68;;;10.00;99.90;;;;;;5009551;28;20048;-77
2022/04/24 02:39:21;;;;;;;9.95;8.52;;;9.90;99.90;;;;;;5027445;28;20045;-77
2022/04/24 02:41:47;;;;;;;9.68;8.68;;;9.90;99.90;;;;;;5038819;28;20106;-78
2022/04/24 02:44:12;;;;;;;11.48;8.70;;;9.90;99.90;;;;;;5036641;28;20038;-77
2022/04/24 02:46:38;;;;;;;10.68;8.98;;;9.80;99.90;;;;;;5037757;28;20053;-78
2022/04/24 02:49:04;;;;;;;9.00;8.10;;;9.80;99.90;;;;;;5028154;28;20056;-77
2022/04/24 02:51:29;;;;;;;9.38;8.10;;;9.70;99.90;;;;;;5029266;28;20404;-77
2022/04/24 02:53:55;;;;;;;10.98;8.85;;;9.70;99.90;;;;;;5011261;28;20039;-78
2022/04/24 02:56:20;;;;;;;10.20;7.97;;;9.70;99.90;;;;;;5028963;28;20092;-77
2022/04/24 02:58:46;;;;;;;10.50;8.45;;;9.70;99.90;;;;;;5028550;28;20026;-78
2022/04/24 03:01:14;;;;;;;9.40;8.25;;;9.60;99.90;;;;;;5029014;28;20688;-78
2022/04/24 03:03:42;;;;;;;11.02;8.38;;;9.60;99.90;;;;;;5028922;28;20124;-78
2022/04/24 03:06:08;;;;;;;10.48;8.27;;;9.50;99.90;;;;;;5028761;28;20041;-78
2022/04/24 03:08:34;;;;;;;10.35;8.30;;;9.50;99.90;;;;;;5029417;28;20069;-77
2022/04/24 03:10:59;;;;;;;11.98;8.30;;;9.50;99.90;;;;;;5010216;28;20448;-78
2022/04/24 03:13:25;;;;;;;8.63;7.78;;;9.50;99.90;;;;;;5011377;28;20042;-78
2022/04/24 03:15:51;;;;;;;8.73;7.70;;;9.50;99.90;;;;;;5029269;28;20469;-78
2022/04/24 03:18:16;;;;;;;9.50;8.00;;;9.50;99.90;;;;;;5029162;28;20052;-78
2022/04/24 03:20:42;;;;;;;9.77;8.27;;;9.50;99.90;;;;;;5011126;28;20045;-78
2022/04/24 03:23:07;;;;;;;9.35;7.43;;;9.40;99.90;;;;;;5028638;28;20059;-78
2022/04/24 03:25:33;;;;;;;11.35;7.75;;;9.40;99.90;;;;;;5028752;28;20041;-78
2022/04/24 03:27:59;;;;;;;8.63;7.70;;;9.40;99.90;;;;;;5028615;28;20522;-78
2022/04/24 03:30:24;;;;;;;9.23;7.70;;;9.40;99.90;;;;;;5009747;28;20041;-78
2022/04/24 03:32:50;;;;;;;8.55;7.65;;;9.40;99.90;;;;;;5028627;28;20046;-78
2022/04/24 03:35:15;;;;;;;9.80;7.80;;;9.30;99.90;;;;;;5028138;28;20045;-78
2022/04/24 03:37:43;;;;;;;10.45;7.47;;;9.30;99.90;;;;;;5010742;28;20033;-78
2022/04/24 03:40:10;;;;;;;8.88;7.97;;;9.20;99.90;;;;;;5028809;28;20064;-78
2022/04/24 03:42:36;;;;;;;8.93;7.95;;;9.30;99.90;;;;;;5009146;28;20080;-77
2022/04/24 03:45:06;;;;;;;10.27;8.00;;;9.20;99.90;;;;;;5007432;28;20068;-77
2022/04/24 03:47:32;;;;;;;9.18;7.60;;;9.20;99.90;;;;;;5028447;28;20044;-77
2022/04/24 03:49:57;;;;;;;8.60;7.70;;;9.20;99.90;;;;;;5007514;28;20042;-78
2022/04/24 03:52:23;;;;;;;11.02;8.10;;;9.20;99.90;;;;;;5026414;28;20060;-78
2022/04/24 03:54:48;;;;;;;9.48;7.75;;;9.10;99.90;;;;;;5028506;28;20107;-78
2022/04/24 03:57:14;;;;;;;8.70;7.63;;;9.10;99.90;;;;;;5028466;28;20045;-78
2022/04/24 03:59:40;;;;;;;9.70;7.88;;;9.10;99.90;;;;;;5027523;28;20046;-78
2022/04/24 04:02:06;;;;;;;9.45;7.38;;;9.10;99.90;;;;;;5010934;28;20401;-78
2022/04/24 04:04:33;;;;;;;9.23;7.20;;;9.10;99.90;;;;;;5010187;28;20098;-78
2022/04/24 04:06:58;;;;;;;9.98;8.15;;;9.00;99.90;;;;;;5027518;28;20053;-78
2022/04/24 04:09:24;;;;;;;10.00;7.07;;;9.00;99.90;;;;;;5028490;28;20425;-77
2022/04/24 04:11:50;;;;;;;8.68;7.57;;;9.00;99.90;;;;;;5030809;28;20409;-78
2022/04/24 04:14:15;;;;;;;9.68;7.55;;;9.00;99.90;;;;;;5009643;28;20038;-77
2022/04/24 04:16:41;;;;;;;10.45;7.43;;;9.00;99.90;;;;;;5010919;28;20079;-77
2022/04/24 04:19:07;;;;;;;10.95;7.90;;;9.00;99.90;;;;;;5027809;28;20121;-78
2022/04/24 04:21:32;;;;;;;11.38;8.07;;;8.90;99.90;;;;;;5027186;28;20049;-78
2022/04/24 04:23:58;;;;;;;9.63;7.60;;;8.90;99.90;;;;;;5028384;28;20071;-78
2022/04/24 04:26:24;;;;;;;10.27;7.65;;;8.90;99.90;;;;;;5027476;28;20041;-77
2022/04/24 04:28:50;;;;;;;10.25;8.00;;;8.80;99.90;;;;;;5010905;28;20065;-78
2022/04/24 04:31:17;;;;;;;9.77;8.10;;;8.80;99.90;;;;;;5010300;28;20493;-78
2022/04/24 04:33:43;;;;;;;8.95;7.78;;;8.80;99.90;;;;;;5009409;28;20072;-77
2022/04/24 04:36:09;;;;;;;11.85;7.72;;;8.70;99.90;;;;;;5028601;28;20046;-78
2022/04/24 04:38:35;;;;;;;11.43;7.95;;;8.70;99.90;;;;;;5027343;28;20042;-78
2022/04/24 04:41:00;;;;;;;10.38;8.18;;;8.70;99.90;;;;;;5009751;28;20102;-78
2022/04/24 04:43:26;;;;;;;9.32;7.72;;;8.70;99.90;;;;;;5028044;28;20504;-77
2022/04/24 04:45:52;;;;;;;8.70;7.80;;;8.70;99.90;;;;;;5010626;28;20034;-78
2022/04/24 04:48:18;;;;;;;9.50;8.50;;;8.60;99.90;;;;;;5030757;28;20029;-77
2022/04/24 04:50:44;;;;;;;9.80;8.20;;;8.60;99.90;;;;;;5010407;28;20081;-78
2022/04/24 04:53:09;;;;;;;9.05;8.13;;;8.60;99.90;;;;;;5027188;28;20090;-78
2022/04/24 04:55:35;;;;;;;11.60;8.23;;;8.60;99.90;;;;;;5027311;28;20112;-78
2022/04/24 04:58:04;;;;;;;9.48;8.07;;;8.60;99.90;;;;;;5009637;28;20046;-78
2022/04/24 05:00:32;;;;;;;9.10;7.90;;;8.60;99.90;;;;;;5030681;28;20053;-78
2022/04/24 05:02:58;;;;;;;10.60;8.20;;;8.60;99.90;;;;;;5027775;28;20594;-78
2022/04/24 05:05:24;;;;;;;10.05;8.98;;;8.60;99.90;;;;;;5042754;28;20084;-77
2022/04/24 05:07:49;;;;;;;11.80;8.77;;;8.60;99.90;;;;;;5006192;28;20477;-77
2022/04/24 05:10:15;;;;;;;12.02;8.63;;;8.60;99.90;;;;;;5031457;28;20053;-78
2022/04/24 05:12:40;;;;;;;11.25;9.02;;;8.60;99.90;;;;;;5031436;28;20049;-78
2022/04/24 05:15:08;;;;;;;11.52;8.52;;;8.60;99.90;;;;;;5031440;28;20044;-77
2022/04/24 05:17:34;;;;;;;10.98;8.05;;;8.70;99.90;;;;;;5012105;28;20049;-77
2022/04/24 05:20:01;;;;;;;13.83;9.13;;;8.60;99.90;;;;;;5032882;28;20042;-78
2022/04/24 05:22:27;;;;;;;10.63;9.52;;;8.60;99.90;;;;;;5031412;28;20060;-77
2022/04/24 05:24:52;;;;;;;11.80;9.43;;;8.60;99.90;;;;;;5030525;28;20129;-78
2022/04/24 05:27:19;;;;;;;9.90;8.30;;;8.60;99.90;;;;;;5028409;28;20056;-79
2022/04/24 05:29:45;;;;;;;9.80;8.80;;;8.70;99.90;;;;;;5010325;28;20084;-79
2022/04/24 05:32:10;;;;;;;9.50;8.38;;;8.70;99.90;;;;;;5030885;28;20095;-80
2022/04/24 05:34:36;;;;;;;11.77;8.73;;;8.70;99.90;;;;;;5015717;28;20054;-80
2022/04/24 05:37:06;;;;;;;11.73;8.88;;;8.80;99.90;;;;;;5030385;28;20042;-79
2022/04/24 05:39:32;;;;;;;10.55;9.15;;;8.80;99.90;;;;;;5013058;28;20046;-80
2022/04/24 05:41:58;;;;;;;13.10;9.05;;;8.90;99.90;;;;;;5012957;28;20140;-79
2022/04/24 05:44:23;;;;;;;10.82;8.38;;;8.90;99.90;;;;;;5012263;28;20136;-80
2022/04/24 05:46:49;;;;;;;10.75;8.65;;;8.90;99.90;;;;;;5031180;28;20049;-80
2022/04/24 05:49:14;;;;;;;9.82;8.82;;;9.00;99.90;;;;;;5029797;28;20069;-80
2022/04/24 05:51:40;;;;;;;11.85;8.85;;;9.00;99.90;;;;;;5030439;28;20099;-80
2022/04/24 05:54:06;;;;;;;11.52;8.38;;;9.10;99.90;;;;;;5030115;28;20377;-80
2022/04/24 05:56:31;;;;;;;9.65;8.65;;;9.10;99.90;;;;;;5012522;28;20405;-80
2022/04/24 05:58:57;;;;;;;10.80;8.80;;;9.10;99.90;;;;;;5012281;28;20041;-80
2022/04/24 06:01:23;;;;;;;9.75;8.75;;;9.10;99.90;;;;;;5019883;28;20513;-80
2022/04/24 06:03:48;;;;;;;10.05;8.57;;;9.10;99.90;;;;;;5030269;28;20049;-80
2022/04/24 06:06:14;;;;;;;10.50;9.30;;;9.10;99.90;;;;;;5028988;28;20048;-80
2022/04/24 06:08:40;;;;;;;11.85;9.20;;;9.10;99.90;;;;;;5013181;28;20046;-80
2022/04/24 06:11:05;;;;;;;9.35;8.38;;;9.10;99.90;;;;;;5011707;28;20056;-80
2022/04/24 06:13:31;;;;;;;9.95;8.40;;;9.20;99.90;;;;;;5026551;28;20108;-78
2022/04/24 06:15:57;;;;;;;10.07;8.80;;;9.20;99.90;;;;;;5028836;28;20045;-77
2022/04/24 06:18:32;;;;;;;10.07;8.35;;;9.30;99.90;;;;;;5028968;28;20121;-77
2022/04/24 06:20:57;;;;;;;11.38;9.02;;;9.30;99.90;;;;;;5029104;28;20060;-78
2022/04/24 06:23:25;;;;;;;9.63;8.23;;;9.30;99.90;;;;;;5029962;28;20050;-80
2022/04/24 06:25:51;;;;;;;;;;;9.40;99.90;;;;;;5013381;28;20052;-79
2022/04/24 06:28:16;;;;;;;10.60;8.43;;;9.40;99.90;;;;;;5011934;28;19925;-77
2022/04/24 06:30:42;;;;;;;9.80;8.27;;;9.40;99.90;;;;;;5029706;28;20045;-78
2022/04/24 06:33:11;;;;;;;13.32;9.15;;;9.50;99.90;;;;;;5008270;28;20054;-78
2022/04/24 06:35:37;;;;;;;14.68;8.55;;;9.50;99.90;;;;;;5008994;28;20129;-78
2022/04/24 06:38:06;;;;;;;8.98;8.07;;;9.60;99.90;;;;;;5010510;28;20057;-78
2022/04/24 06:40:32;;;;;;;12.05;8.13;;;9.60;99.90;;;;;;5009216;28;20084;-77
2022/04/24 06:43:07;;;;;;;10.35;8.05;;;9.60;99.90;;;;;;5008419;28;20112;-82
2022/04/24 06:45:41;;;;;;;9.18;8.27;;;9.70;99.90;;;;;;5008694;28;20092;-82
2022/04/24 06:48:12;;;;;;;11.48;8.40;;;9.80;99.90;;;;;;5007866;28;20445;-81
2022/04/24 06:50:40;;;;;;;9.27;7.85;;;9.80;99.90;;;;;;5009932;28;20256;-81
2022/04/24 06:53:08;;;;;;;10.93;8.25;;;9.80;99.90;;;;;;5010004;28;20386;-80
2022/04/24 06:55:36;;;;;;;9.95;8.40;;;9.80;99.90;;;;;;5007385;28;20042;-84
2022/04/24 06:58:03;;;;;;;9.63;7.78;;;9.80;99.90;;;;;;5007189;28;20045;-79
2022/04/24 07:00:31;;;;;;;9.27;8.02;;;9.90;99.90;;;;;;5017054;28;20077;-85
2022/04/24 07:02:56;;;;;;;9.80;7.60;;;10.00;99.90;;;;;;5011829;28;20050;-82
2022/04/24 07:05:27;;;;;;;13.68;7.72;;;10.00;99.90;;;;;;5006084;28;20676;-84
2022/04/24 07:07:53;;;;;;;10.55;7.65;;;10.00;99.90;;;;;;4998494;28;20057;-83
2022/04/24 07:10:19;;;;;;;10.20;7.75;;;10.10;99.90;;;;;;5005195;28;20034;-85
2022/04/24 07:12:52;;;;;;;9.90;7.93;;;10.20;99.90;;;;;;5009805;28;20037;-84
2022/04/24 07:15:19;;;;;;;11.15;7.70;;;10.30;99.90;;;;;;5008371;28;20536;-84
2022/04/24 07:17:46;;;;;;;8.45;7.53;;;10.30;99.90;;;;;;5007839;28;20092;-85
2022/04/24 07:20:14;;;;;;;9.38;7.38;;;10.40;99.90;;;;;;5009382;28;20389;-81
2022/04/24 07:22:44;;;;;;;9.80;7.38;;;10.50;99.90;;;;;;5008854;28;20038;-83
2022/04/24 07:25:11;;;;;;;9.40;7.50;;;10.50;99.90;;;;;;5008973;28;20042;-81
2022/04/24 07:27:36;;;;;;;10.38;7.13;;;10.50;99.90;;;;;;5008449;28;20049;-81
2022/04/24 07:30:02;;;;;;;9.98;7.30;;;10.60;99.90;;;;;;5005811;28;20096;-85
2022/04/24 07:32:36;;;;;;;8.15;6.82;;;10.80;99.90;;;;;;4998789;28;20046;-85
2022/04/24 07:35:02;;;;;;;8.63;6.82;;;10.90;99.90;;;;;;5026310;28;20511;-84
2022/04/24 07:37:27;;;;;;;9.15;6.70;;;10.90;99.90;;;;;;5027530;28;20049;-84
2022/04/24 07:39:53;;;;;;;8.55;6.18;;;11.00;99.90;;;;;;5025497;28;20889;-85
2022/04/24 07:42:19;;;;;;;8.00;6.32;;;11.00;99.90;;;;;;5011296;28;20056;-85
2022/04/24 07:44:48;;;;;;;8.32;6.20;;;11.10;99.90;;;;;;5027361;28;20516;-82
2022/04/24 07:47:14;;;;;;;8.23;6.25;;;11.20;99.90;;;;;;5028095;28;20049;-82
2022/04/24 07:49:39;;;;;;;8.85;6.43;;;11.10;99.90;;;;;;5028548;28;20044;-82
2022/04/24 07:52:05;;;;;;;9.15;6.13;;;11.20;99.90;;;;;;5010484;28;20057;-82
2022/04/24 07:54:31;;;;;;;8.98;6.28;;;11.30;99.90;;;;;;5028059;28;20124;-82
2022/04/24 07:56:56;;;;;;;7.90;6.20;;;11.40;99.90;;;;;;5010816;28;20037;-82
2022/04/24 07:59:22;;;;;;;9.10;6.20;;;11.50;99.30;;;;;;5026318;28;20033;-81
2022/04/24 08:01:51;;;;;;;7.38;6.00;;;11.50;99.40;;;;;;5027403;28;20501;-81
2022/04/24 08:04:20;;;;;;;8.43;6.13;;;11.60;99.10;;;;;;5010165;28;20057;-81
2022/04/24 08:06:45;;;;;;;7.75;5.75;;;11.70;98.60;;;;;;5029244;28;20033;-81
2022/04/24 08:09:11;;;;;;;9.43;5.72;;;11.70;98.60;;;;;;5010289;28;20045;-82
2022/04/24 08:11:37;;;;;;;7.72;6.18;;;11.80;99.00;;;;;;5027701;28;20050;-81
2022/04/24 08:14:02;;;;;;;8.55;6.50;;;11.90;99.00;;;;;;5028352;28;20124;-82
2022/04/24 08:16:28;;;;;;;8.63;6.03;;;12.00;98.20;;;;;;5027879;28;20053;-82
2022/04/24 08:18:53;;;;;;;8.13;6.57;;;12.00;97.70;;;;;;5027816;28;20124;-81
2022/04/24 08:21:19;;;;;;;9.88;5.63;;;12.10;97.20;;;;;;5027553;28;20404;-81
2022/04/24 08:23:44;;;;;;;8.43;6.13;;;12.10;96.70;;;;;;5028678;28;20076;-82
2022/04/24 08:26:10;;;;;;;7.65;6.10;;;12.10;96.90;;;;;;5026957;28;20052;-81
2022/04/24 08:28:36;;;;;;;11.55;6.57;;;12.20;97.10;;;;;;5010358;28;20044;-81
2022/04/24 08:31:02;;;;;;;8.55;5.95;;;12.20;96.80;;;;;;5027216;28;20044;-81
2022/04/24 08:33:28;;;;;;;7.88;5.90;;;12.20;96.10;;;;;;5010851;28;20084;-81
2022/04/24 08:35:54;;;;;;;9.73;5.70;;;12.20;96.60;;;;;;5032078;28;20075;-81
2022/04/24 08:38:22;;;;;;;8.40;6.07;;;12.30;94.90;;;;;;5032167;28;20152;-81
2022/04/24 08:40:49;;;;;;;8.02;5.78;;;12.30;94.30;;;;;;5012867;28;20045;-81
2022/04/24 08:43:15;;;;;;;8.20;5.15;;;12.40;95.30;;;;;;5030930;28;20033;-81
2022/04/24 08:45:44;;;;;;;7.85;5.75;;;12.50;93.50;;;;;;5031121;28;20099;-81
2022/04/24 08:48:10;;;;;;;10.85;5.55;;;12.60;92.10;;;;;;5030926;28;20045;-81
2022/04/24 08:50:36;;;;;;;7.45;4.32;;;12.60;92.50;;;;;;5031425;28;20581;-81
2022/04/24 08:53:06;;;;;;;7.70;5.00;;;12.70;90.50;;;;;;5016119;28;20049;-81
2022/04/24 08:55:33;;;;;;;10.15;5.28;;;12.80;87.10;;;;;;5029192;28;20080;-81
2022/04/24 08:57:59;;;;;;;6.90;4.70;;;12.90;88.00;;;;;;5013416;28;20436;-81
2022/04/24 09:00:27;;;;;;;7.53;4.55;;;13.00;84.50;;;;;;5030218;28;20407;-81
2022/04/24 09:02:53;;;;;;;8.25;4.95;;;13.10;84.50;;;;;;5030864;28;20042;-81
2022/04/24 09:05:21;;;;;;;6.88;4.72;;;13.20;87.00;;;;;;5031474;28;20515;-83
2022/04/24 09:07:47;;;;;;;8.82;4.43;;;13.20;83.80;;;;;;5013381;28;20041;-80
2022/04/24 09:10:12;;;;;;;8.77;4.20;;;13.30;79.00;;;;;;5014731;28;20370;-81
2022/04/24 09:12:39;;;;;;;7.53;4.25;;;13.40;79.60;;;;;;5014110;28;20615;-82
2022/04/24 09:15:06;;;;;;;7.38;4.20;;;13.50;75.20;;;;;;5023973;28;20049;-82
2022/04/24 09:17:33;;;;;;;7.05;4.15;;;13.60;76.30;;;;;;5044797;28;20033;-83
2022/04/24 09:20:00;;;;;;;5.30;4.03;;;13.60;72.60;;;;;;5023295;28;20053;-79
2022/04/24 09:22:37;;;;;;;7.95;4.82;;;13.70;71.50;;;;;;5035180;28;20128;-84
2022/04/24 09:25:02;;;;;;;6.65;4.22;;;13.70;73.00;;;;;;5031247;28;20051;-82
2022/04/24 09:27:33;;;;;;;7.40;4.15;;;13.80;73.70;;;;;;5013280;28;20045;-80
2022/04/24 09:30:15;;;;;;;5.05;3.40;;;14.00;74.80;;;;;;5012177;28;20081;-81
2022/04/24 09:32:47;;;;;;;5.85;3.80;;;14.10;71.50;;;;;;5041475;28;20046;-79
2022/04/24 09:35:33;;;;;;;5.40;3.80;;;14.20;68.30;;;;;;5030489;28;20128;-82
2022/04/24 09:38:09;;;;;;;7.30;4.07;;;14.30;67.40;;;;;;5030721;28;20045;-81
2022/04/24 09:40:44;;;;;;;5.90;3.70;;;14.30;66.30;;;;;;5031383;28;20052;-81
2022/04/24 09:43:11;;;;;;;6.30;3.60;;;14.50;64.30;;;;;;5031682;28;20060;-81
2022/04/24 09:45:38;;;;;;;4.72;3.67;;;14.50;65.30;;;;;;5030819;28;20052;-81
2022/04/24 09:48:20;;;;;;;6.53;3.80;;;14.60;63.90;;;;;;5013556;28;20132;-80
2022/04/24 09:50:47;;;;;;;6.47;3.65;;;14.70;65.60;;;;;;5030175;28;20501;-81
2022/04/24 09:53:19;;;;;;;5.23;3.47;;;14.70;65.50;;;;;;5012776;28;20366;-79
2022/04/24 09:55:46;;;;;;;5.72;3.67;;;14.80;64.70;;;;;;5034106;28;20460;-80
2022/04/24 09:58:13;;;;;;;6.88;3.45;;;14.80;63.40;;;;;;5021642;28;20499;-80
2022/04/24 10:00:39;;;;;;;5.85;3.45;;;14.80;62.40;;;;;;5010564;28;20132;-79
2022/04/24 10:03:05;;;;;;;6.35;3.38;;;14.80;60.80;;;;;;5013802;28;20099;-78
2022/04/24 10:05:31;;;;;;;4.28;3.28;;;14.90;59.70;;;;;;5050402;28;20049;-78
2022/04/24 10:07:58;;;;;;;5.17;3.03;;;14.90;59.10;;;;;;5041839;28;20048;-77
2022/04/24 10:10:24;;;;;;;5.82;3.35;;;14.90;61.60;;;;;;5029065;28;20489;-78
2022/04/24 10:12:51;;;;;;;5.05;3.22;;;15.00;60.00;;;;;;5023151;28;20132;-76
2022/04/24 10:15:20;;;;;;;6.70;3.08;;;15.10;57.90;;;;;;5010742;28;20063;-76
2022/04/24 10:17:51;;;;;;;4.70;3.10;;;15.10;58.00;;;;;;5031295;28;20046;-76
2022/04/24 10:20:48;;;;;;;5.72;3.20;;;15.10;56.50;;;;;;5029284;28;20425;-76
2022/04/24 10:23:14;;;;;;;6.45;3.58;;;15.20;56.90;;;;;;5012911;28;20053;-76
2022/04/24 10:25:42;;;;;;;6.18;4.03;;;15.20;58.30;;;;;;5029428;28;20044;-76
2022/04/24 10:28:11;;;;;;;5.72;3.60;;;15.30;59.00;;;;;;5029107;28;20033;-76
2022/04/24 10:30:36;;;;;;;7.47;3.72;;;15.30;58.60;;;;;;5012019;28;20049;-76
2022/04/24 10:33:15;;;;;;;4.45;3.38;;;15.30;57.50;;;;;;5006840;28;20057;-76
2022/04/24 10:35:48;;;;;;;5.80;3.67;;;15.30;57.00;;;;;;5007558;28;20529;-76
2022/04/24 10:38:15;;;;;;;4.60;3.70;;;15.30;59.10;;;;;;5010442;28;20052;-76
2022/04/24 10:40:40;;;;;;;6.65;4.47;;;15.40;59.70;;;;;;5008269;28;20048;-77
2022/04/24 10:43:10;;;;;;;6.72;3.80;;;15.50;58.50;;;;;;5006049;28;20034;-79
2022/04/24 10:45:46;;;;;;;6.13;3.55;;;15.60;59.20;;;;;;5015848;28;20397;-79
2022/04/24 10:48:17;;;;;;;6.10;3.50;;;15.60;56.20;;;;;;5020913;28;20085;-80
2022/04/24 10:50:52;;;;;;;6.80;3.13;;;15.60;55.20;;;;;;5008274;28;20368;-78
2022/04/24 10:53:18;;;;;;;8.88;3.13;;;15.60;55.30;;;;;;5009123;28;20099;-78
2022/04/24 10:55:44;;;;;;;5.93;3.30;;;15.60;55.20;;;;;;5008252;28;20672;-80
2022/04/24 10:58:10;;;;;;;5.25;3.45;;;15.70;54.70;;;;;;5008269;28;20448;-79
2022/04/24 11:00:38;;;;;;;5.60;3.47;;;15.70;54.60;;;;;;5006305;28;20033;-79
2022/04/24 11:03:14;;;;;;;;;;;15.70;54.80;;;;;;5009101;28;20134;-76
2022/04/24 11:05:44;;;;;;;4.82;3.15;;;15.70;55.00;;;;;;5009579;28;19969;-79
2022/04/24 11:08:20;;;;;;;4.68;3.15;;;15.70;54.30;;;;;;5009025;28;20053;-77
2022/04/24 11:10:49;;;;;;;4.88;3.50;;;15.80;54.60;;;;;;5008540;28;20088;-76
2022/04/24 11:13:19;;;;;;;6.38;3.40;;;15.80;54.00;;;;;;5009666;28;20563;-77
2022/04/24 11:15:47;;;;;;;8.52;3.70;;;15.80;54.70;;;;;;5002673;28;20053;-79
2022/04/24 11:18:21;;;;;;;5.15;2.90;;;16.00;54.90;;;;;;5007247;28;20057;-76
2022/04/24 11:21:07;;;;;;;3.83;3.20;;;16.00;53.70;;;;;;5010060;28;20473;-78
2022/04/24 11:23:35;;;;;;;5.43;2.90;;;16.00;52.90;;;;;;5009059;28;20080;-75
2022/04/24 11:26:05;;;;;;;4.63;3.00;;;16.10;52.30;;;;;;5006464;28;21274;-78
2022/04/24 11:28:39;;;;;;;5.32;3.25;;;16.10;53.10;;;;;;4999132;28;20041;-78
2022/04/24 11:31:18;;;;;;;9.07;3.42;;;16.20;53.40;;;;;;5007677;28;20038;-80
2022/04/24 11:33:56;;;;;;;10.10;3.28;;;16.30;54.30;;;;;;5007706;28;20057;-78
2022/04/24 11:36:22;;;;;;;;;;;16.40;53.00;;;;;;5006833;28;20045;-78
2022/04/24 11:38:49;;;;;;;6.10;3.28;;;16.40;52.10;;;;;;5006583;28;19917;-79
2022/04/24 11:41:15;;;;;;;5.93;3.60;;;16.40;54.00;;;;;;5005907;28;20042;-80
2022/04/24 11:43:41;;;;;;;7.47;3.80;;;16.40;53.00;;;;;;5026339;28;20040;-80
2022/04/24 11:51:37;;;;;;;4.82;3.20;;;16.10;52.00;;;;;;5002761;28;20046;-79
2022/04/24 11:54:03;;;;;;;6.25;3.58;;;16.10;52.20;;;;;;5008373;28;20529;-81
2022/04/24 11:56:32;;;;;;;6.57;3.53;;;16.00;52.00;;;;;;5007671;28;20069;-80
2022/04/24 11:59:24;;;;;;;6.95;3.15;;;16.10;51.70;;;;;;5007650;28;20867;-82
2022/04/24 12:01:59;;;;;;;6.03;3.50;;;16.20;51.10;;;;;;5002880;28;20641;-81
2022/04/24 12:04:31;;;;;;;6.78;3.40;;;16.20;51.00;;;;;;5006824;28;20046;-79
2022/04/24 12:07:02;;;;;;;5.90;3.10;;;16.30;51.00;;;;;;5008498;28;20042;-79
2022/04/24 12:09:27;;;;;;;6.13;3.50;;;16.50;50.60;;;;;;5009872;28;20038;-80
2022/04/24 12:12:06;;;;;;;7.80;3.40;;;16.60;50.60;;;;;;5012548;28;20666;-79
2022/04/24 12:14:31;;;;;;;6.20;3.40;;;16.60;49.60;;;;;;5008024;28;20073;-78
2022/04/24 12:17:05;;;;;;;5.65;3.00;;;16.60;49.80;;;;;;5010579;28;20093;-77
2022/04/24 12:19:32;;;;;;;6.22;2.80;;;16.60;50.50;;;;;;5009755;28;20049;-75
2022/04/24 12:22:05;;;;;;;5.25;3.00;;;16.50;49.90;;;;;;5007785;28;20198;-78
2022/04/24 12:24:41;;;;;;;6.05;2.80;;;16.50;49.60;;;;;;5015941;28;20033;-78
2022/04/24 12:27:09;;;;;;;4.80;3.10;;;16.40;50.20;;;;;;5011324;28;20049;-75
2022/04/24 12:29:49;;;;;;;6.32;3.60;;;16.50;50.70;;;;;;5012079;28;20045;-78
2022/04/24 12:32:26;;;;;;;4.60;2.90;;;16.50;50.60;;;;;;5009280;28;20042;-78
2022/04/24 12:34:51;;;;;;;6.40;2.90;;;16.50;50.60;;;;;;5014438;28;20057;-76
2022/04/24 12:37:29;;;;;;;6.03;3.25;;;16.60;50.10;;;;;;5006671;28;20080;-76
2022/04/24 12:39:54;;;;;;;7.40;3.40;;;16.80;50.40;;;;;;5011972;28;20042;-78
2022/04/24 12:42:20;;;;;;;6.55;3.70;;;16.80;50.90;;;;;;5009764;28;20045;-76
2022/04/24 12:44:46;;;;;;;6.70;3.75;;;16.80;50.70;;;;;;5011898;28;20046;-79
2022/04/24 12:47:13;;;;;;;6.40;3.60;;;16.60;50.60;;;;;;5011427;28;20107;-82
2022/04/24 12:49:44;;;;;;;6.10;3.80;;;16.40;51.00;;;;;;5009914;28;20072;-78
2022/04/24 12:52:10;;;;;;;7.68;3.70;;;16.20;51.00;;;;;;5008194;28;20053;-81
2022/04/24 12:54:36;;;;;;;6.45;3.38;;;16.20;52.00;;;;;;5011181;28;20034;-76